createdAt,value
2018-12-17T00:00:53.492Z,33.23
2018-12-17T00:03:21.106Z,32.67
2018-12-17T00:05:48.787Z,31.07
2018-12-17T00:08:16.461Z,29.50
2018-12-17T00:10:44.065Z,30.57
2018-12-17T00:13:11.652Z,28.80
2018-12-17T00:15:39.236Z,29.73
2018-12-17T00:18:06.839Z,28.37
2018-12-17T00:20:34.435Z,28.43
2018-12-17T00:23:02.005Z,28.90
2018-12-17T00:25:29.598Z,29.57
2018-12-17T00:27:57.170Z,25.97
2018-12-17T00:30:24.791Z,28.00
2018-12-17T00:32:52.378Z,28.43
2018-12-17T00:35:19.936Z,29.97
2018-12-17T00:37:47.496Z,30.70
2018-12-17T00:40:15.375Z,29.87
2018-12-17T00:42:43.015Z,29.60
2018-12-17T00:45:10.609Z,29.73
2018-12-17T00:47:38.197Z,30.53
2018-12-17T00:50:05.953Z,28.90
2018-12-17T00:52:33.560Z,27.03
2018-12-17T00:55:01.123Z,28.97
2018-12-17T00:57:28.686Z,29.80
2018-12-17T00:59:56.270Z,29.40
2018-12-17T01:02:23.856Z,29.60
2018-12-17T01:04:51.452Z,28.37
2018-12-17T01:07:21.034Z,30.00
2018-12-17T01:09:48.604Z,27.03
2018-12-17T01:12:16.185Z,27.73
2018-12-17T01:14:43.794Z,26.83
2018-12-17T01:17:11.445Z,26.47
2018-12-17T01:19:39.051Z,26.73
2018-12-17T01:22:06.622Z,27.43
2018-12-17T01:24:34.196Z,26.20
2018-12-17T01:27:01.840Z,26.40
2018-12-17T01:29:29.426Z,26.53
2018-12-17T01:31:57.031Z,25.00
2018-12-17T01:34:24.657Z,26.73
2018-12-17T01:36:52.230Z,27.10
2018-12-17T01:39:19.825Z,26.33
2018-12-17T01:41:47.391Z,26.53
2018-12-17T01:44:14.981Z,26.10
2018-12-17T01:46:42.613Z,27.90
2018-12-17T01:49:10.204Z,26.57
2018-12-17T01:51:37.807Z,26.90
2018-12-17T01:54:05.425Z,28.37
2018-12-17T01:56:33.044Z,26.60
2018-12-17T01:59:01.084Z,27.00
2018-12-17T02:01:28.686Z,26.63
2018-12-17T02:03:56.274Z,26.30
2018-12-17T02:06:23.851Z,27.87
2018-12-17T02:08:51.492Z,26.83
2018-12-17T02:11:19.112Z,27.30
2018-12-17T02:13:46.778Z,29.20
2018-12-17T02:16:14.382Z,28.27
2018-12-17T02:18:41.976Z,28.73
2018-12-17T02:21:09.571Z,29.37
2018-12-17T02:23:37.167Z,30.13
2018-12-17T02:26:04.889Z,29.37
2018-12-17T02:28:36.090Z,30.10
2018-12-17T02:31:02.059Z,29.60
2018-12-17T02:33:29.670Z,30.03
2018-12-17T02:35:57.286Z,30.33
2018-12-17T02:38:24.933Z,29.23
2018-12-17T02:40:52.494Z,28.10
2018-12-17T02:43:20.086Z,29.30
2018-12-17T02:45:47.751Z,28.23
2018-12-17T02:48:15.384Z,29.27
2018-12-17T02:50:42.960Z,28.30
2018-12-17T02:53:10.511Z,28.73
2018-12-17T02:55:38.084Z,29.13
2018-12-17T02:58:05.713Z,29.83
2018-12-17T03:00:33.279Z,29.23
2018-12-17T03:03:00.886Z,27.83
2018-12-17T03:05:28.460Z,26.43
2018-12-17T03:07:56.071Z,27.90
2018-12-17T03:10:23.682Z,26.83
2018-12-17T03:12:51.282Z,25.27
2018-12-17T03:15:18.968Z,26.43
2018-12-17T03:17:46.582Z,27.10
2018-12-17T03:20:14.172Z,26.50
2018-12-17T03:22:41.796Z,26.50
2018-12-17T03:25:09.395Z,27.47
2018-12-17T03:27:37.067Z,25.73
2018-12-17T03:30:06.413Z,26.00
2018-12-17T03:32:34.008Z,24.90
2018-12-17T03:35:01.589Z,25.67
2018-12-17T03:37:29.197Z,25.13
2018-12-17T03:39:56.769Z,25.20
2018-12-17T03:42:24.386Z,24.27
2018-12-17T03:44:51.950Z,26.37
2018-12-17T03:47:19.590Z,25.43
2018-12-17T03:49:47.164Z,25.20
2018-12-17T03:52:14.774Z,22.97
2018-12-17T03:54:42.494Z,25.47
2018-12-17T03:57:10.075Z,25.37
2018-12-17T03:59:37.698Z,23.10
2018-12-17T04:02:05.337Z,23.50
2018-12-17T04:04:32.934Z,23.40
2018-12-17T04:07:00.539Z,25.13
2018-12-17T04:09:28.101Z,23.97
2018-12-17T04:11:55.719Z,24.17
2018-12-17T04:14:23.266Z,23.87
2018-12-17T04:16:51.694Z,24.47
2018-12-17T04:19:19.261Z,24.03
2018-12-17T04:21:47.041Z,23.13
2018-12-17T04:24:15.432Z,23.27
2018-12-17T04:26:43.023Z,23.03
2018-12-17T04:29:10.621Z,22.63
2018-12-17T04:31:38.209Z,23.20
2018-12-17T04:34:05.807Z,23.03
2018-12-17T04:36:33.511Z,22.27
2018-12-17T04:39:01.070Z,22.50
2018-12-17T04:41:28.655Z,22.63
2018-12-17T04:43:56.209Z,21.97
2018-12-17T04:46:23.794Z,21.27
2018-12-17T04:48:51.405Z,22.93
2018-12-17T04:51:19.094Z,20.93
2018-12-17T04:53:46.683Z,21.57
2018-12-17T04:56:14.277Z,21.73
2018-12-17T04:58:42.015Z,20.63
2018-12-17T05:01:09.601Z,22.13
2018-12-17T05:03:37.394Z,21.73
2018-12-17T05:06:04.984Z,22.10
2018-12-17T05:08:32.619Z,21.93
2018-12-17T05:11:00.182Z,21.17
2018-12-17T05:13:27.756Z,20.53
2018-12-17T05:15:55.422Z,20.00
2018-12-17T05:18:23.019Z,19.23
2018-12-17T05:20:50.624Z,20.83
2018-12-17T05:23:18.858Z,20.53
2018-12-17T05:25:46.491Z,19.73
2018-12-17T05:28:14.072Z,19.53
2018-12-17T05:30:41.646Z,19.93
2018-12-17T05:33:09.309Z,19.53
2018-12-17T05:35:36.909Z,20.80
2018-12-17T05:38:04.534Z,20.40
2018-12-17T05:40:32.151Z,21.30
2018-12-17T05:42:59.740Z,19.97
2018-12-17T05:45:27.349Z,18.33
2018-12-17T05:47:54.908Z,20.93
2018-12-17T05:50:22.467Z,20.33
2018-12-17T05:52:50.055Z,21.03
2018-12-17T05:55:17.652Z,20.00
2018-12-17T05:57:45.278Z,20.47
2018-12-17T06:00:12.845Z,20.93
2018-12-17T06:02:40.435Z,20.00
2018-12-17T06:05:08.009Z,20.60
2018-12-17T06:07:35.610Z,20.63
2018-12-17T06:10:04.277Z,19.73
2018-12-17T06:12:31.900Z,19.47
2018-12-17T06:14:59.496Z,21.47
2018-12-17T06:17:27.200Z,20.00
2018-12-17T06:19:54.862Z,20.30
2018-12-17T06:22:22.469Z,20.30
2018-12-17T06:24:50.137Z,20.57
2018-12-17T06:27:17.751Z,21.63
2018-12-17T06:29:45.375Z,20.30
2018-12-17T06:32:12.989Z,18.50
2018-12-17T06:34:40.571Z,19.60
2018-12-17T06:37:08.168Z,18.63
2018-12-17T06:39:35.746Z,20.00
2018-12-17T06:42:03.324Z,19.20
2018-12-17T06:44:30.903Z,18.27
2018-12-17T06:46:58.533Z,17.70
2018-12-17T06:49:26.118Z,17.90
2018-12-17T06:51:54.293Z,16.57
2018-12-17T06:54:22.679Z,17.53
2018-12-17T06:56:50.263Z,17.13
2018-12-17T06:59:17.897Z,16.10
2018-12-17T07:01:45.866Z,15.70
2018-12-17T07:04:13.429Z,15.93
2018-12-17T07:06:41.024Z,14.87
2018-12-17T07:09:09.427Z,14.57
2018-12-17T07:11:37.003Z,16.23
2018-12-17T07:14:05.333Z,15.10
2018-12-17T07:16:33.026Z,14.47
2018-12-17T07:19:00.709Z,14.17
2018-12-17T07:21:28.313Z,13.40
2018-12-17T07:23:58.915Z,12.57
2018-12-17T07:26:25.512Z,11.63
2018-12-17T07:28:53.108Z,11.40
2018-12-17T07:31:20.667Z,10.43
2018-12-17T07:33:48.238Z,9.87
2018-12-17T07:36:15.818Z,9.57
2018-12-17T07:38:43.431Z,9.47
2018-12-17T07:41:11.012Z,9.73
2018-12-17T07:43:39.175Z,9.80
2018-12-17T07:46:06.797Z,9.10
2018-12-17T07:48:34.365Z,8.47
2018-12-17T07:51:02.038Z,7.50
2018-12-17T07:53:29.650Z,6.23
2018-12-17T07:55:57.321Z,5.20
2018-12-17T07:58:25.013Z,4.50
2018-12-17T08:00:52.616Z,4.80
2018-12-17T08:03:20.246Z,4.10
2018-12-17T08:05:47.896Z,4.30
2018-12-17T08:08:15.529Z,4.13
2018-12-17T08:10:43.144Z,3.37
2018-12-17T08:13:10.908Z,3.30
2018-12-17T08:15:38.594Z,3.67
2018-12-17T08:18:20.461Z,3.03
2018-12-17T08:20:49.493Z,3.47
2018-12-17T08:23:17.251Z,2.37
2018-12-17T08:25:45.034Z,2.90
2018-12-17T08:28:12.619Z,2.73
2018-12-17T08:30:40.166Z,2.63
2018-12-17T08:33:07.749Z,2.90
2018-12-17T08:35:35.342Z,2.53
2018-12-17T08:38:02.938Z,2.20
2018-12-17T08:40:30.507Z,2.23
2018-12-17T08:42:58.077Z,2.77
2018-12-17T08:45:25.637Z,2.00
2018-12-17T08:47:53.223Z,2.60
2018-12-17T08:50:20.768Z,2.57
2018-12-17T08:52:48.423Z,2.73
2018-12-17T08:55:16.020Z,2.67
2018-12-17T08:57:43.556Z,3.23
2018-12-17T09:00:11.458Z,3.63
2018-12-17T09:02:39.061Z,4.43
2018-12-17T09:05:06.761Z,5.00
2018-12-17T09:07:34.387Z,4.80
2018-12-17T09:10:02.012Z,5.07
2018-12-17T09:12:29.614Z,5.10
2018-12-17T09:14:57.266Z,4.83
2018-12-17T09:17:24.912Z,5.47
2018-12-17T09:19:52.520Z,4.70
2018-12-17T09:22:20.233Z,4.53
2018-12-17T09:24:47.835Z,5.27
2018-12-17T09:27:15.404Z,5.30
2018-12-17T09:29:43.026Z,5.13
2018-12-17T09:32:10.630Z,5.00
2018-12-17T09:34:38.200Z,4.73
2018-12-17T09:37:05.784Z,5.40
2018-12-17T09:39:33.348Z,4.43
2018-12-17T09:42:00.937Z,4.83
2018-12-17T09:44:28.544Z,4.97
2018-12-17T09:46:56.134Z,4.40
2018-12-17T09:49:24.089Z,4.40
2018-12-17T09:51:51.648Z,4.63
2018-12-17T09:54:19.322Z,4.23
2018-12-17T09:56:47.807Z,4.47
2018-12-17T09:59:15.404Z,4.67
2018-12-17T10:01:43.018Z,4.63
2018-12-17T10:04:10.601Z,4.83
2018-12-17T10:06:38.245Z,4.83
2018-12-17T10:09:05.971Z,5.43
2018-12-17T10:11:33.552Z,4.00
2018-12-17T10:14:02.400Z,3.93
2018-12-17T10:16:31.578Z,3.80
2018-12-17T10:18:59.194Z,3.40
2018-12-17T10:21:26.864Z,3.43
2018-12-17T10:23:54.657Z,4.00
2018-12-17T10:26:22.557Z,3.53
2018-12-17T10:28:50.219Z,3.23
2018-12-17T10:31:17.881Z,3.47
2018-12-17T10:33:45.691Z,3.50
2018-12-17T10:36:13.335Z,3.40
2018-12-17T10:38:40.924Z,3.53
2018-12-17T10:41:08.544Z,3.60
2018-12-17T10:43:36.223Z,2.93
2018-12-17T10:46:03.896Z,3.40
2018-12-17T10:48:31.580Z,3.53
2018-12-17T10:50:59.202Z,2.60
2018-12-17T10:53:26.849Z,2.43
2018-12-17T10:55:55.399Z,2.57
2018-12-17T10:58:23.057Z,2.13
2018-12-17T11:00:56.291Z,2.90
2018-12-17T11:03:25.885Z,2.93
2018-12-17T11:05:54.730Z,2.20
2018-12-17T11:08:22.303Z,2.10
2018-12-17T11:10:50.095Z,2.20
2018-12-17T11:13:17.793Z,2.00
2018-12-17T11:15:45.408Z,2.17
2018-12-17T11:18:13.014Z,2.17
2018-12-17T11:20:40.629Z,2.10
2018-12-17T11:23:08.215Z,2.20
2018-12-17T11:25:35.772Z,2.57
2018-12-17T11:28:03.354Z,2.67
2018-12-17T11:30:30.905Z,2.47
2018-12-17T11:32:58.496Z,2.10
2018-12-17T11:35:26.087Z,2.60
2018-12-17T11:37:53.654Z,2.57
2018-12-17T11:40:21.391Z,2.17
2018-12-17T11:42:49.070Z,2.60
2018-12-17T11:45:16.708Z,2.00
2018-12-17T11:47:44.335Z,2.77
2018-12-17T11:50:12.066Z,2.40
2018-12-17T11:52:39.722Z,2.13
2018-12-17T11:55:07.268Z,2.67
2018-12-17T11:57:42.787Z,2.13
2018-12-17T12:00:10.415Z,2.40
2018-12-17T12:02:38.001Z,2.33
2018-12-17T12:05:06.211Z,2.00
2018-12-17T12:07:33.818Z,2.37
2018-12-17T12:10:01.437Z,2.10
2018-12-17T12:12:29.026Z,2.20
2018-12-17T12:14:56.592Z,1.70
2018-12-17T12:17:24.191Z,2.60
2018-12-17T12:19:51.767Z,2.47
2018-12-17T12:22:19.376Z,2.00
2018-12-17T12:24:46.957Z,1.60
2018-12-17T12:27:14.533Z,2.73
2018-12-17T12:29:42.102Z,2.77
2018-12-17T12:32:09.733Z,1.90
2018-12-17T12:34:37.343Z,1.80
2018-12-17T12:37:05.018Z,2.40
2018-12-17T12:39:33.444Z,2.00
2018-12-17T12:42:01.041Z,2.20
2018-12-17T12:44:28.607Z,2.93
2018-12-17T12:46:56.196Z,1.50
2018-12-17T12:49:23.732Z,1.80
2018-12-17T12:51:52.738Z,2.07
2018-12-17T12:54:20.460Z,2.13
2018-12-17T12:56:48.019Z,2.23
2018-12-17T12:59:15.606Z,2.57
2018-12-17T13:01:43.190Z,2.20
2018-12-17T13:04:10.856Z,2.30
2018-12-17T13:06:38.454Z,2.27
2018-12-17T13:09:07.210Z,1.90
2018-12-17T13:11:34.807Z,2.10
2018-12-17T13:14:02.383Z,2.30
2018-12-17T13:16:29.953Z,1.97
2018-12-17T13:18:57.542Z,2.03
2018-12-17T13:21:25.164Z,2.80
2018-12-17T13:23:52.750Z,1.83
2018-12-17T13:26:20.370Z,1.80
2018-12-17T13:28:47.951Z,2.00
2018-12-17T13:31:15.506Z,1.93
2018-12-17T13:33:43.097Z,1.87
2018-12-17T13:36:10.644Z,2.27
2018-12-17T13:38:38.246Z,2.27
2018-12-17T13:41:05.854Z,1.80
2018-12-17T13:43:33.465Z,2.03
2018-12-17T13:46:01.053Z,1.97
2018-12-17T13:48:28.673Z,2.47
2018-12-17T13:50:58.238Z,1.93
2018-12-17T13:53:31.877Z,2.50
2018-12-17T13:55:59.459Z,2.20
2018-12-17T13:58:27.158Z,1.70
2018-12-17T14:00:54.723Z,1.90
2018-12-17T14:03:22.302Z,2.47
2018-12-17T14:05:49.902Z,2.60
2018-12-17T14:08:17.503Z,1.80
2018-12-17T14:10:50.852Z,2.27
2018-12-17T14:13:18.465Z,1.90
2018-12-17T14:15:51.417Z,1.73
2018-12-17T14:18:25.527Z,2.10
2018-12-17T14:20:59.147Z,2.10
2018-12-17T14:23:26.832Z,1.73
2018-12-17T14:25:54.444Z,1.67
2018-12-17T14:28:22.006Z,1.80
2018-12-17T14:30:49.615Z,2.20
2018-12-17T14:33:17.252Z,1.97
2018-12-17T14:35:50.566Z,1.73
2018-12-17T14:38:18.227Z,2.33
2018-12-17T14:40:45.836Z,2.33
2018-12-17T14:43:13.494Z,2.47
2018-12-17T14:45:41.082Z,1.83
2018-12-17T14:48:08.678Z,1.90
2018-12-17T14:50:36.376Z,1.83
2018-12-17T14:53:03.957Z,2.53
2018-12-17T14:55:31.570Z,2.20
2018-12-17T14:57:59.179Z,2.23
2018-12-17T15:00:26.775Z,2.17
2018-12-17T15:02:54.531Z,2.00
2018-12-17T15:05:23.201Z,2.20
2018-12-17T15:07:50.818Z,2.03
2018-12-17T15:10:18.785Z,2.03
2018-12-17T15:12:46.608Z,1.53
2018-12-17T15:15:14.339Z,1.87
2018-12-17T15:17:41.925Z,2.00
2018-12-17T15:20:09.967Z,2.23
2018-12-17T15:22:37.627Z,2.03
2018-12-17T15:25:07.389Z,2.37
2018-12-17T15:27:34.996Z,2.37
2018-12-17T15:30:02.687Z,2.73
2018-12-17T15:32:31.194Z,2.67
2018-12-17T15:34:58.794Z,2.00
2018-12-17T15:37:26.394Z,2.10
2018-12-17T15:39:54.090Z,2.10
2018-12-17T15:42:22.020Z,2.17
2018-12-17T15:44:50.436Z,2.37
2018-12-17T15:47:18.919Z,3.03
2018-12-17T15:49:46.646Z,2.73
2018-12-17T15:52:14.290Z,3.27
2018-12-17T15:54:41.939Z,2.43
2018-12-17T15:57:09.532Z,2.80
2018-12-17T15:59:37.164Z,2.47
2018-12-17T16:02:04.826Z,2.47
2018-12-17T16:04:32.388Z,2.83
2018-12-17T16:07:00.027Z,2.97
2018-12-17T16:09:27.706Z,3.13
2018-12-17T16:11:55.309Z,2.77
2018-12-17T16:14:22.927Z,3.90
2018-12-17T16:16:50.608Z,2.83
2018-12-17T16:19:18.210Z,2.97
2018-12-17T16:21:46.712Z,2.57
2018-12-17T16:24:14.471Z,2.40
2018-12-17T16:26:42.063Z,3.47
2018-12-17T16:29:09.665Z,6.63
2018-12-17T16:31:37.330Z,2.53
2018-12-17T16:34:06.573Z,3.23
2018-12-17T16:36:34.724Z,3.07
2018-12-17T16:39:02.349Z,3.00
2018-12-17T16:41:30.045Z,2.77
2018-12-17T16:43:57.737Z,2.87
2018-12-17T16:46:26.286Z,2.97
2018-12-17T16:48:53.942Z,2.60
2018-12-17T16:51:21.561Z,3.50
2018-12-17T16:53:50.321Z,3.70
2018-12-17T16:56:18.350Z,3.90
2018-12-17T16:58:45.984Z,3.60
2018-12-17T17:01:13.596Z,3.87
2018-12-17T17:03:41.342Z,5.23
2018-12-17T17:06:08.999Z,3.43
2018-12-17T17:08:36.581Z,2.83
2018-12-17T17:11:04.171Z,2.47
2018-12-17T17:13:38.069Z,2.73
2018-12-17T17:16:06.693Z,3.03
2018-12-17T17:18:35.136Z,2.70
2018-12-17T17:21:03.821Z,2.90
2018-12-17T17:23:31.578Z,3.23
2018-12-17T17:25:59.163Z,2.80
2018-12-17T17:28:26.932Z,3.20
2018-12-17T17:30:54.549Z,3.40
2018-12-17T17:33:22.297Z,2.43
2018-12-17T17:35:52.650Z,3.93
2018-12-17T17:38:20.269Z,3.37
2018-12-17T17:40:48.754Z,3.03
2018-12-17T17:43:16.442Z,3.10
2018-12-17T17:45:46.052Z,2.70
2018-12-17T17:48:13.797Z,2.70
2018-12-17T17:50:41.449Z,2.80
2018-12-17T17:53:09.004Z,3.47
2018-12-17T17:55:36.606Z,3.50
2018-12-17T17:58:04.159Z,3.23
2018-12-17T18:00:31.891Z,2.93
2018-12-17T18:02:59.526Z,2.67
2018-12-17T18:05:27.287Z,3.73
2018-12-17T18:07:54.848Z,3.10
2018-12-17T18:10:22.477Z,2.53
2018-12-17T18:12:50.070Z,3.20
2018-12-17T18:15:17.763Z,3.00
2018-12-17T18:17:45.437Z,3.33
2018-12-17T18:20:13.076Z,3.03
2018-12-17T18:22:40.751Z,3.40
2018-12-17T18:25:08.428Z,4.43
2018-12-17T18:27:36.326Z,4.10
2018-12-17T18:30:05.985Z,3.80
2018-12-17T18:32:34.431Z,3.40
2018-12-17T18:35:02.103Z,3.97
2018-12-17T18:37:29.704Z,4.20
2018-12-17T18:39:57.363Z,4.17
2018-12-17T18:42:25.689Z,3.60
2018-12-17T18:44:53.343Z,3.80
2018-12-17T18:47:25.608Z,3.80
2018-12-17T18:49:50.644Z,3.83
2018-12-17T18:52:18.351Z,4.57
2018-12-17T18:54:46.130Z,3.67
2018-12-17T18:57:13.738Z,3.67
2018-12-17T18:59:41.507Z,3.40
2018-12-17T19:02:09.202Z,3.50
2018-12-17T19:04:36.818Z,2.93
2018-12-17T19:07:04.573Z,3.07
2018-12-17T19:09:32.339Z,3.30
2018-12-17T19:12:00.032Z,3.83
2018-12-17T19:14:27.655Z,3.83
2018-12-17T19:16:55.297Z,3.70
2018-12-17T19:19:22.940Z,9.37
2018-12-17T19:21:50.571Z,12.60
2018-12-17T19:24:18.335Z,7.60
2018-12-17T19:26:45.952Z,4.87
2018-12-17T19:29:13.524Z,3.40
2018-12-17T19:31:41.213Z,4.03
2018-12-17T19:34:08.870Z,3.60
2018-12-17T19:36:39.923Z,3.20
2018-12-17T19:39:08.382Z,2.93
2018-12-17T19:41:36.007Z,3.80
2018-12-17T19:44:04.927Z,3.90
2018-12-17T19:46:32.510Z,3.80
2018-12-17T19:49:00.102Z,3.93
2018-12-17T19:51:27.748Z,4.10
2018-12-17T19:53:55.449Z,3.63
2018-12-17T19:56:23.026Z,4.33
2018-12-17T19:58:50.892Z,4.33
2018-12-17T20:01:18.527Z,4.20
2018-12-17T20:03:46.173Z,4.67
2018-12-17T20:06:13.763Z,4.33
2018-12-17T20:08:41.397Z,5.37
2018-12-17T20:11:09.041Z,4.60
2018-12-17T20:13:36.623Z,4.37
2018-12-17T20:16:04.183Z,5.53
2018-12-17T20:18:31.767Z,6.10
2018-12-17T20:20:59.429Z,6.40
2018-12-17T20:23:27.091Z,7.70
2018-12-17T20:25:54.807Z,7.40
2018-12-17T20:28:22.481Z,7.60
2018-12-17T20:30:50.055Z,6.83
2018-12-17T20:33:17.684Z,6.10
2018-12-17T20:35:46.307Z,6.80
2018-12-17T20:38:14.149Z,7.90
2018-12-17T20:40:41.786Z,7.80
2018-12-17T20:43:09.410Z,8.23
2018-12-17T20:45:37.836Z,8.10
2018-12-17T20:48:05.563Z,7.83
2018-12-17T20:50:33.200Z,8.80
2018-12-17T20:53:00.848Z,8.87
2018-12-17T20:55:30.785Z,9.13
2018-12-17T20:57:58.958Z,10.00
2018-12-17T21:00:26.794Z,9.17
2018-12-17T21:03:00.072Z,11.20
2018-12-17T21:05:24.057Z,9.80
2018-12-17T21:07:52.951Z,9.80
2018-12-17T21:10:20.543Z,9.80
2018-12-17T21:12:48.212Z,9.97
2018-12-17T21:15:15.807Z,10.47
2018-12-17T21:17:43.388Z,10.30
2018-12-17T21:20:10.990Z,11.37
2018-12-17T21:22:38.618Z,10.37
2018-12-17T21:25:06.485Z,10.90
2018-12-17T21:27:34.137Z,11.27
2018-12-17T21:30:01.805Z,10.40
2018-12-17T21:32:29.465Z,11.83
2018-12-17T21:34:57.084Z,11.40
2018-12-17T21:37:24.706Z,11.03
2018-12-17T21:39:52.333Z,11.63
2018-12-17T21:42:19.986Z,11.60
2018-12-17T21:44:47.788Z,11.37
2018-12-17T21:47:15.419Z,12.20
2018-12-17T21:49:43.087Z,12.33
2018-12-17T21:52:10.690Z,12.53
2018-12-17T21:54:38.270Z,11.50
2018-12-17T21:57:05.978Z,12.97
2018-12-17T21:59:33.555Z,12.80
2018-12-17T22:02:01.249Z,13.03
2018-12-17T22:04:29.977Z,12.40
2018-12-17T22:06:57.585Z,13.37
2018-12-17T22:09:25.228Z,13.73
2018-12-17T22:11:52.862Z,14.73
2018-12-17T22:14:21.083Z,12.80
2018-12-17T22:16:48.683Z,14.23
2018-12-17T22:19:16.421Z,14.10
2018-12-17T22:21:44.142Z,14.47
2018-12-17T22:24:11.787Z,15.30
2018-12-17T22:26:39.437Z,14.40
2018-12-17T22:29:07.086Z,14.87
2018-12-17T22:31:34.879Z,14.87
2018-12-17T22:34:02.545Z,14.73
2018-12-17T22:36:30.176Z,14.77
2018-12-17T22:38:57.862Z,13.93
2018-12-17T22:41:25.573Z,14.70
2018-12-17T22:43:53.343Z,14.20
2018-12-17T22:46:20.939Z,13.70
2018-12-17T22:48:48.658Z,13.97
2018-12-17T22:51:16.316Z,13.50
2018-12-17T22:53:43.918Z,14.00
2018-12-17T22:56:11.514Z,17.53
2018-12-17T22:58:42.314Z,21.03
2018-12-17T23:01:08.713Z,19.87
2018-12-17T23:03:37.089Z,18.10
2018-12-17T23:06:04.769Z,17.27
2018-12-17T23:08:33.130Z,15.93
2018-12-17T23:11:12.756Z,16.77
2018-12-17T23:13:52.318Z,15.87
2018-12-17T23:16:32.510Z,16.40
2018-12-17T23:18:59.718Z,15.63
2018-12-17T23:21:27.392Z,17.07
2018-12-17T23:23:55.080Z,16.30
2018-12-17T23:26:22.680Z,17.10
2018-12-17T23:28:50.287Z,16.53
2018-12-17T23:31:17.931Z,16.50
2018-12-17T23:33:45.540Z,15.47
2018-12-17T23:36:13.193Z,15.53
2018-12-17T23:38:40.784Z,15.40
2018-12-17T23:41:08.355Z,15.60
2018-12-17T23:43:36.791Z,13.63
2018-12-17T23:46:04.388Z,14.27
2018-12-17T23:48:32.073Z,14.53
2018-12-17T23:50:59.687Z,15.10
2018-12-17T23:53:27.382Z,14.23
2018-12-17T23:55:55.774Z,14.23
2018-12-17T23:58:23.358Z,14.37
